Time;durP1;ratioP1;P1;durP2;ratioP2;P2;SDS_P1;SDS_P2;PMS_P1;PMS_P2;Temp;Humidity;BMP_temperature;BMP_pressure;BME280_temperature;BME280_humidity;BME280_pressure;Samples;Min_cycle;Max_cycle;Signal;HPM_P1;HPM_P2
2024/03/09 00:00:16;;;;;;;0.60;0.55;;;2.40;99.90;;;;;;4950111;28;20077;-78
2024/03/09 00:02:46;;;;;;;1.88;0.70;;;2.40;99.90;;;;;;4964150;28;20031;-78
2024/03/09 00:05:13;;;;;;;1.17;0.95;;;2.40;99.90;;;;;;4961515;28;20477;-78
2024/03/09 00:07:39;;;;;;;1.08;0.98;;;2.50;99.90;;;;;;4942748;28;20047;-78
2024/03/09 00:10:06;;;;;;;3.10;1.80;;;2.50;99.90;;;;;;4963815;28;20038;-78
2024/03/09 00:12:33;;;;;;;0.85;0.85;;;2.50;99.90;;;;;;4948121;28;20023;-78
2024/03/09 00:15:03;;;;;;;0.30;0.30;;;2.50;99.90;;;;;;4935636;28;20054;-78
2024/03/09 00:17:30;;;;;;;0.15;0.15;;;2.40;99.90;;;;;;4960802;28;20094;-78
2024/03/09 00:19:58;;;;;;;0.43;0.43;;;2.40;99.90;;;;;;4963019;28;20034;-77
2024/03/09 00:22:27;;;;;;;0.30;0.30;;;2.40;99.90;;;;;;4961246;28;20036;-77
2024/03/09 00:24:57;;;;;;;0.20;0.20;;;2.40;99.90;;;;;;4960381;28;20051;-77
2024/03/09 00:27:24;;;;;;;0.70;0.57;;;2.40;99.90;;;;;;4965085;28;20357;-76
2024/03/09 00:29:54;;;;;;;3.47;0.57;;;2.30;99.90;;;;;;4953615;28;20039;-77
2024/03/09 00:32:21;;;;;;;2.13;0.85;;;2.40;99.90;;;;;;4967234;28;20495;-77
2024/03/09 00:34:48;;;;;;;0.15;0.15;;;2.30;99.90;;;;;;4965514;28;20468;-77
2024/03/09 00:37:14;;;;;;;0.52;0.52;;;2.40;99.90;;;;;;4950404;28;20046;-77
2024/03/09 00:39:42;;;;;;;0.30;0.30;;;2.40;99.90;;;;;;4959955;28;20396;-77
2024/03/09 00:42:09;;;;;;;0.03;0.03;;;2.40;99.90;;;;;;4962326;28;20045;-76
2024/03/09 00:44:35;;;;;;;0.95;0.90;;;2.40;99.90;;;;;;4963025;28;20047;-77
2024/03/09 00:47:02;;;;;;;1.38;1.00;;;2.30;99.90;;;;;;4950270;28;20039;-76
2024/03/09 00:49:31;;;;;;;0.85;0.85;;;2.30;99.90;;;;;;4959227;28;20031;-77
2024/03/09 00:52:00;;;;;;;4.20;0.65;;;2.20;99.90;;;;;;4941342;28;20461;-77
2024/03/09 00:54:26;;;;;;;0.20;0.20;;;2.20;99.90;;;;;;4965380;28;20047;-78
2024/03/09 00:56:53;;;;;;;0.22;0.22;;;2.20;99.90;;;;;;4963491;28;20046;-76
2024/03/09 00:59:19;;;;;;;0.13;0.13;;;2.20;99.90;;;;;;4964629;28;20492;-76
2024/03/09 01:01:49;;;;;;;6.22;3.20;;;2.20;99.90;;;;;;4947780;28;20042;-77
2024/03/09 01:04:15;;;;;;;7.93;1.88;;;2.10;99.90;;;;;;4946807;28;20069;-77
2024/03/09 01:06:42;;;;;;;0.90;0.77;;;2.10;99.90;;;;;;4966478;28;20388;-77
2024/03/09 01:09:10;;;;;;;1.90;1.67;;;2.10;99.90;;;;;;4959461;28;20464;-76
2024/03/09 01:11:38;;;;;;;1.58;1.48;;;2.10;99.90;;;;;;4965540;28;20039;-76
2024/03/09 01:14:04;;;;;;;16.63;2.65;;;2.10;99.90;;;;;;4964519;28;20046;-76
2024/03/09 01:16:30;;;;;;;1.65;1.55;;;2.20;99.90;;;;;;4965003;28;20058;-76
2024/03/09 01:18:56;;;;;;;1.23;1.20;;;2.10;99.90;;;;;;4962133;28;20026;-77
2024/03/09 01:21:23;;;;;;;1.92;1.80;;;2.10;99.90;;;;;;4953987;28;20039;-77
2024/03/09 01:23:49;;;;;;;1.40;0.95;;;2.20;99.90;;;;;;4967290;28;20039;-77
2024/03/09 01:26:15;;;;;;;1.88;1.77;;;2.20;99.90;;;;;;4945462;28;20035;-77
2024/03/09 01:28:41;;;;;;;1.17;1.05;;;2.20;99.90;;;;;;4954808;28;20047;-77
2024/03/09 01:31:12;;;;;;;1.85;1.50;;;2.30;99.90;;;;;;4956747;28;20031;-77
2024/03/09 01:33:39;;;;;;;;;;;2.20;99.90;;;;;;4965822;28;20047;-77
2024/03/09 01:36:05;;;;;;;3.92;2.95;;;2.20;99.90;;;;;;4963820;28;19925;-77
2024/03/09 01:38:32;;;;;;;3.83;1.85;;;2.20;99.90;;;;;;4964739;28;20051;-76
2024/03/09 01:40:58;;;;;;;2.13;1.95;;;2.30;99.90;;;;;;4964287;28;20488;-78
2024/03/09 01:43:24;;;;;;;1.90;1.80;;;2.30;99.90;;;;;;4968943;28;20070;-77
2024/03/09 01:45:50;;;;;;;0.75;0.75;;;2.30;99.90;;;;;;4969294;28;20038;-76
2024/03/09 01:48:21;;;;;;;2.00;1.08;;;2.30;99.90;;;;;;4968222;28;20039;-78
2024/03/09 01:50:49;;;;;;;0.95;0.95;;;2.30;99.90;;;;;;4960824;28;20034;-77
2024/03/09 01:53:18;;;;;;;0.43;0.43;;;2.30;99.90;;;;;;4962684;28;20047;-78
2024/03/09 01:55:48;;;;;;;0.57;0.57;;;2.30;99.90;;;;;;4968613;28;20058;-78
2024/03/09 01:58:19;;;;;;;0.28;0.28;;;2.30;99.90;;;;;;4963133;28;20031;-77
2024/03/09 02:00:54;;;;;;;1.27;1.17;;;2.30;99.90;;;;;;4949303;28;20097;-78
2024/03/09 02:03:23;;;;;;;0.30;0.30;;;2.40;1.00;;;;;;4968279;28;20034;-77
2024/03/09 02:05:54;;;;;;;2.33;2.13;;;2.40;1.00;;;;;;4949516;28;20048;-78
2024/03/09 02:08:21;;;;;;;0.63;0.60;;;2.40;1.00;;;;;;4966224;28;20039;-78
2024/03/09 02:10:47;;;;;;;0.73;0.73;;;2.50;1.00;;;;;;4959910;28;20035;-78
2024/03/09 02:13:15;;;;;;;2.40;1.05;;;2.50;1.00;;;;;;4960429;28;20046;-77
2024/03/09 02:15:47;;;;;;;2.58;1.63;;;2.50;1.00;;;;;;4958386;28;20480;-78
2024/03/09 02:18:15;;;;;;;0.85;0.85;;;2.60;1.00;;;;;;4967665;28;20034;-78
2024/03/09 02:20:41;;;;;;;0.45;0.45;;;2.60;1.00;;;;;;4946703;28;20365;-78
2024/03/09 02:23:09;;;;;;;0.85;0.85;;;2.60;1.00;;;;;;4963203;28;20045;-78
2024/03/09 02:25:36;;;;;;;0.60;0.60;;;2.70;1.00;;;;;;4970721;28;20031;-78
2024/03/09 02:28:03;;;;;;;0.65;0.65;;;2.70;1.00;;;;;;4967636;28;20039;-76
2024/03/09 02:30:29;;;;;;;1.50;1.40;;;2.80;1.00;;;;;;4946823;28;20058;-77
2024/03/09 02:32:57;;;;;;;0.80;0.55;;;2.80;1.00;;;;;;4953590;28;20046;-77
2024/03/09 02:35:25;;;;;;;0.10;0.10;;;2.80;1.00;;;;;;4943496;28;20043;-77
2024/03/09 02:37:51;;;;;;;1.25;1.05;;;2.80;1.00;;;;;;4961108;28;20034;-76
2024/03/09 02:40:18;;;;;;;4.22;2.53;;;2.80;1.00;;;;;;4964322;28;20369;-77
2024/03/09 02:45:29;;;;;;;2.17;1.55;;;2.80;1.00;;;;;;4953088;28;20553;-77
2024/03/09 02:47:55;;;;;;;1.80;1.10;;;2.80;1.00;;;;;;4967794;28;20031;-77
2024/03/09 02:50:24;;;;;;;1.35;1.23;;;2.90;1.00;;;;;;4965866;28;20477;-77
2024/03/09 02:52:51;;;;;;;9.75;1.23;;;2.90;1.00;;;;;;4961576;28;20042;-76
2024/03/09 02:55:17;;;;;;;0.73;0.73;;;2.90;1.00;;;;;;4962508;28;20058;-78
2024/03/09 02:57:43;;;;;;;0.52;0.52;;;2.90;1.00;;;;;;4966293;28;20043;-78
2024/03/09 03:00:11;;;;;;;1.25;1.10;;;2.90;1.00;;;;;;4967380;28;20065;-76
2024/03/09 03:05:24;;;;;;;12.75;2.42;;;3.00;1.00;;;;;;4959255;28;20039;-78
2024/03/09 03:07:51;;;;;;;1.52;1.20;;;2.90;1.00;;;;;;4953319;29;20035;-77
2024/03/09 03:10:18;;;;;;;1.65;1.13;;;2.90;1.00;;;;;;4967237;28;20042;-78
2024/03/09 03:12:45;;;;;;;0.50;0.50;;;2.90;1.00;;;;;;4952131;28;20035;-78
2024/03/09 03:15:14;;;;;;;1.17;0.57;;;2.90;1.00;;;;;;4960213;28;20046;-78
2024/03/09 03:17:41;;;;;;;4.55;2.20;;;3.00;99.90;;;;;;4963922;28;20039;-78
2024/03/09 03:20:09;;;;;;;4.15;0.80;;;3.00;99.90;;;;;;4960959;28;20127;-78
2024/03/09 03:22:37;;;;;;;0.40;0.40;;;3.00;99.90;;;;;;4964380;28;20039;-78
2024/03/09 03:25:05;;;;;;;0.85;0.85;;;3.10;99.90;;;;;;4963331;28;20030;-78
2024/03/09 03:27:31;;;;;;;1.90;1.63;;;3.10;99.90;;;;;;4967072;28;20390;-78
2024/03/09 03:29:58;;;;;;;2.13;0.60;;;3.20;99.90;;;;;;4966721;28;20026;-77
2024/03/09 03:32:25;;;;;;;0.93;0.90;;;3.10;99.90;;;;;;4961308;28;20054;-76
2024/03/09 03:34:53;;;;;;;0.52;0.52;;;3.10;99.90;;;;;;4964426;28;20043;-76
2024/03/09 03:37:19;;;;;;;1.08;1.08;;;3.20;99.90;;;;;;4961255;28;20377;-78
2024/03/09 03:39:45;;;;;;;0.50;0.50;;;3.20;99.90;;;;;;4945433;28;20054;-78
2024/03/09 03:42:12;;;;;;;0.30;0.30;;;3.10;1.00;;;;;;4961051;28;20031;-78
2024/03/09 03:44:42;;;;;;;4.03;1.27;;;3.20;1.00;;;;;;4966984;28;20047;-78
2024/03/09 03:47:08;;;;;;;0.55;0.55;;;3.10;1.00;;;;;;4948106;28;20057;-77
2024/03/09 03:49:34;;;;;;;2.42;2.22;;;3.10;1.00;;;;;;4953579;28;20047;-78
2024/03/09 03:52:01;;;;;;;2.92;2.65;;;3.00;1.00;;;;;;4965295;28;20388;-77
2024/03/09 03:54:27;;;;;;;0.75;0.75;;;3.00;1.00;;;;;;4962205;28;20035;-78
2024/03/09 03:56:53;;;;;;;0.30;0.30;;;2.90;1.00;;;;;;4954572;28;20035;-77
2024/03/09 03:59:20;;;;;;;0.40;0.40;;;2.90;1.00;;;;;;4954419;28;20477;-78
2024/03/09 04:01:46;;;;;;;0.80;0.47;;;2.90;1.00;;;;;;4968850;28;20022;-78
2024/03/09 04:04:12;;;;;;;1.55;1.00;;;2.80;1.00;;;;;;4961683;28;20042;-78
2024/03/09 04:06:44;;;;;;;0.40;0.40;;;2.70;1.00;;;;;;4968453;28;20027;-78
2024/03/09 04:09:14;;;;;;;1.95;1.85;;;2.70;1.00;;;;;;4947420;28;20507;-78
2024/03/09 04:11:40;;;;;;;0.68;0.63;;;2.70;1.00;;;;;;4961278;28;20032;-78
2024/03/09 04:14:09;;;;;;;1.65;0.77;;;2.70;1.00;;;;;;4965461;28;20397;-78
2024/03/09 04:16:36;;;;;;;0.65;0.63;;;2.70;1.00;;;;;;4964966;28;20035;-78
2024/03/09 04:19:02;;;;;;;1.40;1.30;;;2.60;1.00;;;;;;4963902;28;20054;-76
2024/03/09 04:21:29;;;;;;;0.80;0.80;;;2.50;1.00;;;;;;4961382;28;20039;-76
2024/03/09 04:23:56;;;;;;;1.45;1.23;;;2.50;4.90;;;;;;4961359;28;20498;-76
2024/03/09 04:26:22;;;;;;;1.75;1.23;;;2.40;19.80;;;;;;4942478;28;20051;-76
2024/03/09 04:28:48;;;;;;;0.38;0.38;;;2.30;39.60;;;;;;4945669;28;20050;-76
2024/03/09 04:31:15;;;;;;;1.95;1.25;;;2.30;55.60;;;;;;4961621;28;20034;-76
2024/03/09 04:33:41;;;;;;;1.15;1.15;;;2.30;64.10;;;;;;4965970;28;20050;-77
2024/03/09 04:36:08;;;;;;;1.65;1.27;;;2.20;76.30;;;;;;4967061;28;20046;-76
2024/03/09 04:38:35;;;;;;;0.17;0.17;;;2.20;71.00;;;;;;4963088;28;20376;-77
2024/03/09 04:41:01;;;;;;;1.35;1.25;;;2.20;64.80;;;;;;4964007;28;20368;-78
2024/03/09 04:43:27;;;;;;;0.28;0.25;;;2.20;68.50;;;;;;4969505;28;20081;-78
2024/03/09 04:45:55;;;;;;;0.52;0.45;;;2.20;70.10;;;;;;4966257;28;20038;-77
2024/03/09 04:48:22;;;;;;;8.45;2.70;;;2.20;70.30;;;;;;4959153;28;20027;-78
2024/03/09 04:50:48;;;;;;;0.75;0.75;;;2.20;74.00;;;;;;4966591;28;20041;-78
2024/03/09 04:53:16;;;;;;;1.17;1.17;;;2.30;75.00;;;;;;4958830;28;20488;-78
2024/03/09 04:55:47;;;;;;;0.80;0.80;;;2.30;64.60;;;;;;4965176;28;20043;-78
2024/03/09 04:58:15;;;;;;;16.13;1.83;;;2.20;55.70;;;;;;4976637;28;20031;-78
2024/03/09 05:00:41;;;;;;;0.57;0.57;;;2.20;58.00;;;;;;4968893;28;20038;-78
2024/03/09 05:03:08;;;;;;;0.50;0.50;;;2.20;59.40;;;;;;4963251;28;20061;-78
2024/03/09 05:05:34;;;;;;;1.33;1.23;;;2.20;80.70;;;;;;4959071;28;20042;-78
2024/03/09 05:08:02;;;;;;;2.05;0.77;;;2.30;86.60;;;;;;4961531;28;20043;-78
2024/03/09 05:10:30;;;;;;;0.57;0.57;;;2.30;74.00;;;;;;4963790;28;20031;-78
2024/03/09 05:12:56;;;;;;;0.45;0.45;;;2.30;64.90;;;;;;4966238;28;20046;-78
2024/03/09 05:15:29;;;;;;;1.77;1.67;;;2.40;55.40;;;;;;4943087;28;20047;-78
2024/03/09 05:17:56;;;;;;;0.10;0.10;;;2.50;50.90;;;;;;4963753;28;20042;-77
2024/03/09 05:20:23;;;;;;;5.47;2.15;;;2.50;36.70;;;;;;4961270;28;20385;-78
2024/03/09 05:22:53;;;;;;;1.30;1.20;;;2.50;27.30;;;;;;4946186;28;20047;-78
2024/03/09 05:25:21;;;;;;;0.60;0.60;;;2.50;29.50;;;;;;4946765;28;20031;-78
2024/03/09 05:27:48;;;;;;;1.13;1.02;;;2.50;45.40;;;;;;4963284;28;20043;-78
2024/03/09 05:30:18;;;;;;;0.77;0.77;;;2.60;31.60;;;;;;4965175;28;20034;-78
2024/03/09 05:32:50;;;;;;;2.22;1.65;;;2.70;27.20;;;;;;4968190;28;20468;-78
2024/03/09 05:35:17;;;;;;;0.80;0.80;;;2.80;13.40;;;;;;4962229;28;20050;-78
2024/03/09 05:37:44;;;;;;;0.77;0.60;;;2.90;1.00;;;;;;4961240;28;20031;-78
2024/03/09 05:40:13;;;;;;;1.00;0.55;;;2.80;1.00;;;;;;4964135;28;20035;-78
2024/03/09 05:42:43;;;;;;;5.03;3.10;;;2.80;1.00;;;;;;4950349;28;20053;-78
2024/03/09 05:45:18;;;;;;;3.72;1.33;;;2.80;1.00;;;;;;4964425;28;20043;-78
2024/03/09 05:47:47;;;;;;;0.57;0.57;;;2.80;1.00;;;;;;4962684;28;20046;-78
2024/03/09 05:50:17;;;;;;;0.90;0.90;;;2.70;1.00;;;;;;4954874;28;20035;-76
2024/03/09 05:52:47;;;;;;;1.08;1.05;;;2.80;1.10;;;;;;4965391;28;20380;-76
2024/03/09 05:55:15;;;;;;;1.33;1.23;;;2.80;1.00;;;;;;4944137;28;20039;-76
2024/03/09 05:57:44;;;;;;;0.47;0.47;;;2.90;1.00;;;;;;4963402;28;20065;-78
2024/03/09 06:00:11;;;;;;;1.73;1.63;;;2.90;4.80;;;;;;4960366;28;20034;-75
2024/03/09 06:02:41;;;;;;;0.77;0.77;;;2.90;29.10;;;;;;4948121;28;20042;-78
2024/03/09 06:05:08;;;;;;;1.42;1.35;;;3.00;25.00;;;;;;4962372;28;20034;-77
2024/03/09 06:07:41;;;;;;;0.30;0.30;;;3.10;1.00;;;;;;4957225;28;20039;-77
2024/03/09 06:10:09;;;;;;;0.55;0.55;;;3.10;1.00;;;;;;4963505;28;20488;-77
2024/03/09 06:12:35;;;;;;;2.55;2.38;;;3.20;1.00;;;;;;4954607;28;20031;-78
2024/03/09 06:15:05;;;;;;;0.80;0.68;;;3.20;1.00;;;;;;4966911;28;20054;-78
2024/03/09 06:17:32;;;;;;;1.30;1.20;;;3.20;1.00;;;;;;4962891;28;20031;-77
2024/03/09 06:20:02;;;;;;;1.77;1.67;;;3.20;1.00;;;;;;4957436;28;20023;-77
2024/03/09 06:22:30;;;;;;;3.95;3.22;;;3.30;1.00;;;;;;4957824;28;20030;-76
2024/03/09 06:24:56;;;;;;;4.18;2.50;;;3.30;1.00;;;;;;4946692;28;20047;-77
2024/03/09 06:27:22;;;;;;;1.13;1.13;;;3.20;1.00;;;;;;4956821;28;20380;-77
2024/03/09 06:29:49;;;;;;;10.65;2.17;;;3.30;1.00;;;;;;4968835;28;20050;-77
2024/03/09 06:32:15;;;;;;;1.55;1.48;;;3.30;1.00;;;;;;4970216;28;20035;-77
2024/03/09 06:34:44;;;;;;;1.98;1.05;;;3.30;1.00;;;;;;4955510;28;20050;-77
2024/03/09 06:37:10;;;;;;;0.75;0.75;;;3.40;1.00;;;;;;4961549;28;20477;-78
2024/03/09 06:39:38;;;;;;;1.45;1.25;;;3.40;1.00;;;;;;4936879;28;20051;-77
2024/03/09 06:42:09;;;;;;;1.27;1.17;;;3.50;1.00;;;;;;4967906;28;20046;-77
2024/03/09 06:44:38;;;;;;;5.43;2.85;;;3.60;1.00;;;;;;4931832;29;20059;-77
2024/03/09 06:47:06;;;;;;;1.58;1.48;;;3.60;1.00;;;;;;4934151;29;20051;-74
2024/03/09 06:49:35;;;;;;;0.85;0.85;;;3.70;1.00;;;;;;4925627;29;20371;-77
2024/03/09 06:52:05;;;;;;;6.18;3.25;;;3.80;1.00;;;;;;4925052;29;20040;-77
2024/03/09 06:54:31;;;;;;;1.23;1.10;;;3.90;1.00;;;;;;4929330;29;20036;-76
2024/03/09 06:56:57;;;;;;;0.82;0.82;;;4.00;99.90;;;;;;4926890;29;20040;-77
2024/03/09 06:59:24;;;;;;;3.58;2.03;;;4.00;99.90;;;;;;4934221;29;20040;-76
2024/03/09 07:01:53;;;;;;;1.80;1.67;;;4.00;99.90;;;;;;4928874;29;20039;-77
2024/03/09 07:04:19;;;;;;;1.52;1.33;;;4.10;99.90;;;;;;4933518;29;20036;-76
2024/03/09 07:06:45;;;;;;;3.50;2.25;;;4.10;99.90;;;;;;4923737;29;20043;-77
2024/03/09 07:09:11;;;;;;;2.47;2.10;;;4.20;99.90;;;;;;4923234;29;20036;-77
2024/03/09 07:11:38;;;;;;;2.83;2.53;;;4.30;99.90;;;;;;4934054;29;20044;-77
2024/03/09 07:14:04;;;;;;;1.65;1.55;;;4.50;99.90;;;;;;4930028;29;20036;-77
2024/03/09 07:16:32;;;;;;;2.97;1.90;;;4.90;99.90;;;;;;4931290;29;20036;-77
2024/03/09 07:18:59;;;;;;;2.15;2.05;;;5.20;99.90;;;;;;4925757;29;20059;-77
2024/03/09 07:21:26;;;;;;;2.40;2.20;;;5.30;92.00;;;;;;4925324;29;20052;-76
2024/03/09 07:23:52;;;;;;;1.33;1.25;;;5.20;66.80;;;;;;4929397;29;20039;-76
2024/03/09 07:26:19;;;;;;;1.58;1.48;;;5.30;96.80;;;;;;4927004;29;20265;-77
2024/03/09 07:28:45;;;;;;;3.33;1.35;;;5.70;53.70;;;;;;4933301;29;20054;-76
2024/03/09 07:31:12;;;;;;;1.98;1.85;;;6.10;1.00;;;;;;4929127;29;20386;-77
2024/03/09 07:33:38;;;;;;;5.05;1.88;;;6.30;1.00;;;;;;4927137;29;20044;-77
2024/03/09 07:36:05;;;;;;;2.38;1.70;;;6.30;1.00;;;;;;4922014;29;20040;-76
2024/03/09 07:38:31;;;;;;;1.38;1.30;;;6.30;1.00;;;;;;4922870;29;20051;-76
2024/03/09 07:40:57;;;;;;;3.55;2.70;;;6.10;1.00;;;;;;4933938;29;20047;-76
2024/03/09 07:43:24;;;;;;;2.10;2.00;;;5.90;1.00;;;;;;4934392;29;20078;-76
2024/03/09 07:45:50;;;;;;;1.60;1.02;;;6.40;1.00;;;;;;4948851;29;20388;-76
2024/03/09 07:48:16;;;;;;;1.58;1.25;;;7.00;1.00;;;;;;4943273;29;20051;-76
2024/03/09 07:50:48;;;;;;;2.38;1.52;;;7.60;1.00;;;;;;4952351;28;20409;-76
2024/03/09 07:53:14;;;;;;;2.50;1.75;;;7.80;99.90;;;;;;4936922;29;20503;-75
2024/03/09 07:55:41;;;;;;;1.13;1.05;;;8.40;99.90;;;;;;4945430;28;20043;-74
2024/03/09 07:58:09;;;;;;;1.60;1.42;;;8.80;99.90;;;;;;4948169;29;20258;-74
2024/03/09 08:00:35;;;;;;;1.48;1.38;;;8.40;99.90;;;;;;4947110;29;20338;-74
2024/03/09 08:03:02;;;;;;;0.70;0.70;;;8.40;99.90;;;;;;4943804;29;20046;-73
2024/03/09 08:05:29;;;;;;;1.77;1.45;;;8.40;99.90;;;;;;4950837;28;20523;-76
2024/03/09 08:07:55;;;;;;;2.28;1.75;;;8.90;99.90;;;;;;4941006;29;20509;-77
2024/03/09 08:10:24;;;;;;;2.78;1.48;;;9.50;99.90;;;;;;4942526;29;20039;-77
2024/03/09 08:12:52;;;;;;;2.15;1.98;;;9.90;99.90;;;;;;4947465;29;20032;-76
2024/03/09 08:15:19;;;;;;;2.05;1.30;;;10.50;99.90;;;;;;4946526;29;20385;-76
2024/03/09 08:17:49;;;;;;;2.67;1.67;;;10.80;99.90;;;;;;4944991;29;20405;-76
2024/03/09 08:20:17;;;;;;;1.25;1.15;;;10.00;99.90;;;;;;4948091;29;20048;-77
2024/03/09 08:22:45;;;;;;;9.95;6.22;;;10.30;99.90;;;;;;4950263;29;20055;-74
2024/03/09 08:25:12;;;;;;;4.88;2.50;;;10.30;99.90;;;;;;4937300;28;20056;-75
2024/03/09 08:27:40;;;;;;;1.80;1.50;;;10.60;99.90;;;;;;4945012;29;20035;-74
2024/03/09 08:30:12;;;;;;;2.33;1.88;;;10.70;99.90;;;;;;4947832;29;20040;-75
2024/03/09 08:32:43;;;;;;;4.15;2.15;;;10.40;99.90;;;;;;4961235;28;20477;-75
2024/03/09 08:35:17;;;;;;;2.42;1.75;;;10.00;99.90;;;;;;4943057;29;20050;-76
2024/03/09 08:37:45;;;;;;;6.22;2.05;;;9.70;99.90;;;;;;4941682;29;20114;-75
2024/03/09 08:40:16;;;;;;;3.55;2.05;;;9.90;99.90;;;;;;4940016;29;20023;-75
2024/03/09 08:42:50;;;;;;;1.60;1.38;;;9.60;99.90;;;;;;4943571;29;20059;-76
2024/03/09 08:45:17;;;;;;;3.53;0.80;;;10.00;99.90;;;;;;4942300;29;20401;-75
2024/03/09 08:47:44;;;;;;;1.75;1.48;;;10.50;99.90;;;;;;4947294;28;20051;-75
2024/03/09 08:50:10;;;;;;;2.20;2.03;;;10.10;99.90;;;;;;4945465;29;20035;-75
2024/03/09 08:52:38;;;;;;;2.92;2.55;;;9.70;99.90;;;;;;4940469;29;20039;-75
2024/03/09 08:55:13;;;;;;;2.13;1.95;;;10.00;99.90;;;;;;4942852;28;20133;-75
2024/03/09 08:57:48;;;;;;;0.85;0.73;;;10.20;99.90;;;;;;4944235;29;20457;-75
2024/03/09 09:00:19;;;;;;;4.40;1.50;;;10.70;99.90;;;;;;4944945;29;20397;-75
2024/03/09 09:02:49;;;;;;;2.40;1.67;;;11.80;99.90;;;;;;4946465;29;20477;-75
2024/03/09 09:05:15;;;;;;;2.28;1.75;;;12.70;99.90;;;;;;4942668;29;20048;-75
2024/03/09 09:07:44;;;;;;;1.65;0.82;;;13.40;99.90;;;;;;4938830;29;20038;-75
2024/03/09 09:10:20;;;;;;;2.20;1.88;;;13.60;99.90;;;;;;4944729;29;20051;-74
2024/03/09 09:12:49;;;;;;;1.83;0.70;;;13.40;99.90;;;;;;4946826;29;20038;-75
2024/03/09 09:15:19;;;;;;;1.63;1.42;;;12.90;99.90;;;;;;4948663;29;20047;-74
2024/03/09 09:17:45;;;;;;;2.50;1.55;;;12.50;99.90;;;;;;4943263;29;20378;-76
2024/03/09 09:20:12;;;;;;;2.85;2.03;;;13.80;99.90;;;;;;4933734;29;20039;-77
2024/03/09 09:22:43;;;;;;;1.83;1.58;;;14.40;99.90;;;;;;4939677;29;20055;-76
2024/03/09 09:25:12;;;;;;;2.28;1.67;;;14.80;99.90;;;;;;4943493;29;20044;-77
2024/03/09 09:27:39;;;;;;;7.72;2.78;;;15.40;99.90;;;;;;4944127;29;20038;-77
2024/03/09 09:30:06;;;;;;;1.90;1.75;;;15.20;99.90;;;;;;4959217;28;20051;-77
2024/03/09 09:32:32;;;;;;;3.17;1.80;;;14.90;99.90;;;;;;4946755;29;20028;-76
2024/03/09 09:35:02;;;;;;;1.33;1.23;;;15.10;99.90;;;;;;4940481;29;20043;-75
2024/03/09 09:37:29;;;;;;;2.35;2.08;;;15.60;99.90;;;;;;4941407;29;20035;-75
2024/03/09 09:39:55;;;;;;;3.00;1.30;;;14.40;99.90;;;;;;4941628;29;20034;-77
2024/03/09 09:42:28;;;;;;;3.05;0.88;;;14.30;99.90;;;;;;4952305;28;20037;-77
2024/03/09 09:44:56;;;;;;;2.42;1.77;;;14.30;99.90;;;;;;4966548;28;20392;-75
2024/03/09 09:47:25;;;;;;;2.42;1.98;;;13.50;99.90;;;;;;4959118;28;20046;-75
2024/03/09 09:49:53;;;;;;;7.03;2.38;;;14.00;99.90;;;;;;4964154;28;20050;-75
2024/03/09 09:52:22;;;;;;;2.80;2.50;;;14.70;99.90;;;;;;4958395;28;20035;-75
2024/03/09 09:54:48;;;;;;;2.72;0.98;;;15.70;99.90;;;;;;4962659;28;20148;-75
2024/03/09 09:57:17;;;;;;;3.17;1.95;;;15.90;99.90;;;;;;4960181;28;20032;-75
2024/03/09 09:59:46;;;;;;;1.27;1.17;;;15.50;99.90;;;;;;4966232;28;20054;-75
2024/03/09 10:02:14;;;;;;;2.42;1.88;;;14.10;99.90;;;;;;4967133;28;20031;-74
2024/03/09 10:04:40;;;;;;;2.90;1.63;;;13.40;99.90;;;;;;4967088;28;20492;-74
2024/03/09 10:07:08;;;;;;;3.88;2.13;;;12.60;99.90;;;;;;4950662;28;20058;-74
2024/03/09 10:09:34;;;;;;;2.83;1.70;;;11.90;99.90;;;;;;4957067;28;20035;-74
2024/03/09 10:12:00;;;;;;;3.85;2.25;;;11.80;99.90;;;;;;4968594;28;20050;-74
2024/03/09 10:14:27;;;;;;;8.90;7.25;;;12.30;99.90;;;;;;4967292;28;20362;-74
2024/03/09 10:16:54;;;;;;;5.68;3.88;;;12.50;99.90;;;;;;4952367;28;20035;-76
2024/03/09 10:19:20;;;;;;;7.25;2.95;;;13.10;99.90;;;;;;4968922;28;20380;-76
2024/03/09 10:21:51;;;;;;;1.95;1.48;;;13.40;99.90;;;;;;4970412;28;20045;-76
2024/03/09 10:24:18;;;;;;;2.67;1.67;;;13.30;99.90;;;;;;4956473;28;20031;-76
2024/03/09 10:26:47;;;;;;;2.33;1.67;;;12.90;99.90;;;;;;4970456;28;20040;-76
2024/03/09 10:29:14;;;;;;;3.28;2.15;;;12.40;99.90;;;;;;4972528;28;20034;-76
2024/03/09 10:31:43;;;;;;;2.55;2.15;;;11.80;99.90;;;;;;4973532;28;20031;-75
2024/03/09 10:34:12;;;;;;;1.95;1.13;;;11.90;99.90;;;;;;4970555;28;20035;-74
2024/03/09 10:36:39;;;;;;;4.50;2.67;;;11.90;99.90;;;;;;4962517;28;20480;-75
2024/03/09 10:39:06;;;;;;;4.13;1.60;;;11.90;99.90;;;;;;4970736;28;20039;-75
2024/03/09 10:41:35;;;;;;;2.70;1.40;;;11.90;99.90;;;;;;4973477;28;20487;-74
2024/03/09 10:44:02;;;;;;;3.95;1.85;;;12.10;99.90;;;;;;4950567;28;20059;-77
2024/03/09 10:46:32;;;;;;;2.80;2.15;;;11.80;99.90;;;;;;4952506;29;20265;-75
2024/03/09 10:48:58;;;;;;;2.30;1.55;;;11.50;99.90;;;;;;4952095;29;20032;-75
2024/03/09 10:51:37;;;;;;;2.65;1.40;;;11.70;99.90;;;;;;4941903;29;20031;-74
2024/03/09 10:54:14;;;;;;;4.22;1.75;;;11.80;99.90;;;;;;4950723;29;20035;-74
2024/03/09 10:56:42;;;;;;;2.60;1.58;;;11.90;99.90;;;;;;4946383;29;20035;-75
2024/03/09 10:59:10;;;;;;;1.45;1.35;;;12.10;99.90;;;;;;4947960;29;20043;-75
2024/03/09 11:01:38;;;;;;;3.30;2.28;;;12.20;99.90;;;;;;4944616;29;20369;-75
2024/03/09 11:04:06;;;;;;;2.15;2.05;;;12.40;99.90;;;;;;4946469;29;20389;-75
2024/03/09 11:06:34;;;;;;;4.35;2.15;;;12.20;99.90;;;;;;4941519;29;20034;-75
2024/03/09 11:09:03;;;;;;;1.20;1.10;;;12.00;99.90;;;;;;4945073;29;20027;-76
2024/03/09 11:11:31;;;;;;;1.73;1.35;;;12.20;99.90;;;;;;4956207;28;20044;-75
2024/03/09 11:14:05;;;;;;;1.85;1.75;;;12.30;99.90;;;;;;4948658;29;20050;-74
2024/03/09 11:16:32;;;;;;;1.27;1.17;;;12.20;99.90;;;;;;4945892;29;20047;-74
2024/03/09 11:19:00;;;;;;;1.00;1.00;;;12.00;99.90;;;;;;4949629;29;20039;-73
2024/03/09 11:21:34;;;;;;;2.50;1.48;;;12.40;99.90;;;;;;4942256;29;20039;-75
2024/03/09 11:24:12;;;;;;;0.80;0.80;;;12.80;99.90;;;;;;4958640;28;20047;-74
2024/03/09 11:26:52;;;;;;;3.60;2.53;;;12.90;99.90;;;;;;4959946;28;20055;-74
2024/03/09 11:29:21;;;;;;;1.65;1.30;;;13.00;99.90;;;;;;4949459;29;20054;-75
2024/03/09 11:31:51;;;;;;;2.28;1.52;;;13.10;99.90;;;;;;4949895;29;20040;-75
2024/03/09 11:34:21;;;;;;;1.70;1.10;;;13.10;99.90;;;;;;4945761;29;20035;-75
2024/03/09 11:36:58;;;;;;;2.17;2.03;;;13.20;99.90;;;;;;4942142;29;20039;-74
2024/03/09 11:39:31;;;;;;;3.30;1.08;;;13.20;99.90;;;;;;4942093;29;20039;-75
2024/03/09 11:42:00;;;;;;;2.80;1.35;;;13.30;99.90;;;;;;4946843;29;20031;-75
2024/03/09 11:44:36;;;;;;;1.35;1.25;;;13.20;99.90;;;;;;4946057;28;20055;-74
2024/03/09 11:47:06;;;;;;;7.20;1.95;;;13.10;99.90;;;;;;4927380;29;20055;-74
2024/03/09 11:49:33;;;;;;;4.57;1.85;;;13.00;99.90;;;;;;4944992;29;20375;-74
2024/03/09 11:52:02;;;;;;;3.47;2.30;;;12.80;99.90;;;;;;4952753;28;20408;-74
2024/03/09 11:54:29;;;;;;;2.65;1.77;;;13.00;99.90;;;;;;4944871;29;20046;-75
2024/03/09 11:56:56;;;;;;;8.55;1.52;;;13.30;99.90;;;;;;4942512;29;20058;-73
2024/03/09 11:59:23;;;;;;;1.67;1.58;;;13.70;99.90;;;;;;4945911;29;20031;-74
2024/03/09 12:02:02;;;;;;;1.10;0.95;;;13.60;99.90;;;;;;4943817;29;20047;-74
2024/03/09 12:04:32;;;;;;;1.75;0.98;;;13.50;99.90;;;;;;4941903;29;20043;-75
2024/03/09 12:07:00;;;;;;;0.80;0.80;;;13.50;99.90;;;;;;4942052;29;20496;-74
2024/03/09 12:09:28;;;;;;;2.25;2.00;;;13.60;99.90;;;;;;4941580;29;20116;-74
2024/03/09 12:11:55;;;;;;;6.90;1.55;;;13.70;99.90;;;;;;4951435;29;20046;-74
2024/03/09 12:14:21;;;;;;;2.00;1.85;;;13.80;99.90;;;;;;4947436;29;20034;-73
2024/03/09 12:16:51;;;;;;;1.63;1.52;;;13.80;99.90;;;;;;4944990;29;20046;-73
2024/03/09 12:19:18;;;;;;;2.47;1.95;;;13.70;99.90;;;;;;4942325;29;20036;-73
2024/03/09 12:21:45;;;;;;;3.63;1.27;;;13.50;99.90;;;;;;4943798;29;20043;-73
2024/03/09 12:24:13;;;;;;;1.35;1.30;;;13.70;99.90;;;;;;4943062;29;20062;-74
2024/03/09 12:26:39;;;;;;;3.53;1.30;;;13.70;99.90;;;;;;4953996;29;20046;-74
2024/03/09 12:29:07;;;;;;;1.25;1.15;;;14.00;99.90;;;;;;4949050;28;20040;-74
2024/03/09 12:31:38;;;;;;;1.55;1.23;;;14.00;99.90;;;;;;4955997;28;20508;-74
2024/03/09 12:34:05;;;;;;;;;;;13.80;99.90;;;;;;4948346;29;20043;-76
2024/03/09 12:36:31;;;;;;;1.70;1.48;;;14.00;99.90;;;;;;4940564;29;19926;-73
2024/03/09 12:39:15;;;;;;;1.98;1.15;;;14.10;99.90;;;;;;4942215;29;20492;-75
2024/03/09 12:41:42;;;;;;;0.82;0.82;;;14.10;99.90;;;;;;4943380;29;20031;-73
2024/03/09 12:44:10;;;;;;;1.08;1.02;;;14.20;99.90;;;;;;4963698;28;20054;-73
2024/03/09 12:46:41;;;;;;;2.17;1.20;;;14.40;99.90;;;;;;4963958;28;20046;-73
2024/03/09 12:49:11;;;;;;;2.05;1.50;;;14.60;99.90;;;;;;4955291;28;20079;-74
2024/03/09 12:51:56;;;;;;;0.75;0.60;;;14.50;99.90;;;;;;4960848;28;20396;-73
2024/03/09 12:54:23;;;;;;;0.88;0.65;;;14.40;99.90;;;;;;4959869;28;20058;-74
2024/03/09 12:56:51;;;;;;;4.35;2.15;;;14.40;99.90;;;;;;4966281;28;20039;-74
2024/03/09 12:59:25;;;;;;;3.78;1.98;;;14.60;99.90;;;;;;4966630;28;20035;-74
2024/03/09 13:01:52;;;;;;;3.25;0.88;;;14.80;99.90;;;;;;4964788;28;20043;-73
2024/03/09 13:04:23;;;;;;;1.52;1.42;;;14.80;99.90;;;;;;4962921;28;20042;-74